Time;durP1;ratioP1;P1;durP2;ratioP2;P2;SDS_P1;SDS_P2;PMS_P1;PMS_P2;Temp;Humidity;BMP_temperature;BMP_pressure;BME280_temperature;BME280_humidity;BME280_pressure;Samples;Min_cycle;Max_cycle;Signal;HPM_P1;HPM_P2
2021/10/07 00:01:31;;;;;;;10.20;6.30;;;;;;;11.55;35.51;101896.11;117278;1189;23554;-50
2021/10/07 00:04:00;;;;;;;10.30;5.30;;;;;;;11.52;35.50;101899.60;117292;1186;24157;-50
2021/10/07 00:06:29;;;;;;;12.50;6.20;;;;;;;11.51;35.52;101901.00;117367;1186;21854;-50
2021/10/07 00:08:57;;;;;;;12.80;4.70;;;;;;;11.49;35.43;101900.98;117277;1183;23255;-50
2021/10/07 00:11:26;;;;;;;13.90;5.40;;;;;;;11.46;35.36;101900.45;117343;1182;23441;-50
2021/10/07 00:13:54;;;;;;;14.60;6.00;;;;;;;11.44;35.46;101900.60;117280;1185;22990;-50
2021/10/07 00:16:22;;;;;;;13.40;6.10;;;;;;;11.41;35.45;101902.33;117285;1185;22644;-50
2021/10/07 00:18:52;;;;;;;11.30;4.90;;;;;;;11.36;35.47;101902.30;117306;1183;22622;-50
2021/10/07 00:21:21;;;;;;;11.40;4.70;;;;;;;11.32;35.38;101900.84;117358;1184;22931;-50
2021/10/07 00:24:08;;;;;;;11.50;4.70;;;;;;;11.29;35.61;101902.21;117282;1185;23556;-50
2021/10/07 00:26:45;;;;;;;10.70;4.70;;;;;;;11.23;35.46;101899.20;117252;1186;23547;-50
2021/10/07 00:32:08;;;;;;;13.60;5.70;;;;;;;11.16;35.40;101898.41;117276;1184;23797;-50
2021/10/07 00:37:21;;;;;;;15.90;5.40;;;;;;;11.07;35.49;101896.91;117339;1180;21889;-50
2021/10/07 00:39:49;;;;;;;14.10;4.50;;;;;;;11.08;35.43;101894.65;117274;1185;21860;-52
2021/10/07 00:42:18;;;;;;;11.80;4.40;;;;;;;11.10;35.58;101892.39;117353;1186;23471;-50
2021/10/07 00:44:46;;;;;;;8.10;4.30;;;;;;;11.10;35.33;101894.67;117255;1183;23547;-50
2021/10/07 00:47:16;;;;;;;11.40;4.30;;;;;;;11.07;35.51;101889.71;117378;1185;21867;-50
2021/10/07 00:49:44;;;;;;;8.90;4.60;;;;;;;11.04;35.40;101890.22;117361;1186;21899;-50
2021/10/07 00:52:17;;;;;;;15.30;5.00;;;;;;;11.03;35.39;101887.23;117260;1185;21897;-49
2021/10/07 00:54:50;;;;;;;12.20;5.10;;;;;;;11.01;35.47;101892.48;117266;1185;21866;-49
2021/10/07 00:57:19;;;;;;;10.00;4.70;;;;;;;10.98;35.48;101894.20;117320;1183;21944;-50
2021/10/07 00:59:48;;;;;;;11.30;4.60;;;;;;;10.96;35.50;101896.98;117122;1186;21857;-49
2021/10/07 01:02:17;;;;;;;11.80;4.10;;;;;;;10.93;35.53;101900.47;117258;1185;23544;-50
2021/10/07 01:04:45;;;;;;;14.00;4.50;;;;;;;10.90;35.43;101900.95;117309;1185;23599;-50
2021/10/07 01:07:16;;;;;;;10.20;4.90;;;;;;;10.88;35.45;101901.82;117348;1183;23541;-50
2021/10/07 01:09:45;;;;;;;12.60;4.40;;;;;;;10.87;35.45;101900.92;117365;1183;23541;-49
2021/10/07 01:12:13;;;;;;;11.30;4.60;;;;;;;10.84;35.58;101906.33;117349;1183;22908;-50
2021/10/07 01:14:58;;;;;;;14.50;4.60;;;;;;;10.81;35.62;101903.33;117302;1185;24176;-51
2021/10/07 01:17:29;;;;;;;14.70;5.10;;;;;;;10.78;35.53;101900.30;117234;1185;23448;-49
2021/10/07 01:19:59;;;;;;;11.50;4.80;;;;;;;10.72;35.67;101899.54;117343;1186;21842;-49
2021/10/07 01:22:28;;;;;;;14.50;4.60;;;;;;;10.65;35.68;101903.13;117277;1189;21877;-50
2021/10/07 01:24:56;;;;;;;11.50;5.10;;;;;;;10.61;35.81;101906.77;117306;1185;23636;-50
2021/10/07 01:27:26;;;;;;;9.40;4.90;;;;;;;10.58;35.80;101906.40;117255;1182;21876;-49
2021/10/07 01:30:04;;;;;;;12.20;4.40;;;;;;;10.55;35.84;101907.61;117278;1183;21925;-50
2021/10/07 01:32:34;;;;;;;11.40;4.80;;;;;;;10.54;35.81;101906.17;117293;1182;22127;-50
2021/10/07 01:35:04;;;;;;;8.30;4.20;;;;;;;10.52;35.83;101905.79;117364;1185;21847;-50
2021/10/07 01:37:33;;;;;;;11.20;5.20;;;;;;;10.48;35.98;101901.89;117416;1185;22655;-50
2021/10/07 01:40:04;;;;;;;14.30;4.50;;;;;;;10.45;35.73;101903.25;117250;1185;23814;-49
2021/10/07 01:42:32;;;;;;;17.90;4.80;;;;;;;10.41;35.85;101907.41;117027;1186;21861;-50
2021/10/07 01:45:00;;;;;;;14.60;4.10;;;;;;;10.38;35.81;101905.42;117251;1183;23557;-51
2021/10/07 01:47:28;;;;;;;14.20;4.40;;;;;;;10.35;35.85;101905.02;117302;1186;24140;-51
2021/10/07 01:49:56;;;;;;;14.10;5.20;;;;;;;10.34;35.80;101907.30;117306;1186;22621;-49
2021/10/07 01:52:26;;;;;;;9.30;3.90;;;;;;;10.30;35.93;101909.35;117371;1186;23570;-49
2021/10/07 01:54:54;;;;;;;11.40;4.30;;;;;;;10.25;35.89;101907.34;117426;1186;21863;-49
2021/10/07 01:57:22;;;;;;;10.70;4.40;;;;;;;10.19;35.92;101910.95;117253;1185;21930;-50
2021/10/07 01:59:50;;;;;;;13.00;5.70;;;;;;;10.13;35.82;101914.39;117235;1183;21848;-50
2021/10/07 02:02:19;;;;;;;12.30;5.30;;;;;;;10.08;35.85;101913.61;117282;1182;21845;-50
2021/10/07 02:04:47;;;;;;;12.50;4.10;;;;;;;10.05;35.87;101911.45;117352;1183;23555;-51
2021/10/07 02:07:16;;;;;;;11.70;4.10;;;;;;;10.01;35.96;101912.27;117367;1182;23566;-52
2021/10/07 02:09:44;;;;;;;13.10;4.90;;;;;;;9.98;35.88;101912.06;117272;1185;23544;-50
2021/10/07 02:12:12;;;;;;;8.80;4.70;;;;;;;9.94;35.84;101909.90;117267;1186;23564;-49
2021/10/07 02:14:41;;;;;;;6.60;3.70;;;;;;;9.91;35.90;101911.25;117050;1183;22812;-50
2021/10/07 02:17:09;;;;;;;9.30;4.10;;;;;;;9.88;35.99;101910.16;117185;1186;21874;-49
2021/10/07 02:19:38;;;;;;;14.30;5.00;;;;;;;9.86;35.98;101909.07;117219;1182;23652;-60
2021/10/07 02:22:06;;;;;;;10.60;4.10;;;;;;;9.84;36.04;101909.39;117231;1185;23539;-60
2021/10/07 02:24:34;;;;;;;11.80;5.00;;;;;;;9.81;35.97;101910.23;117188;1185;23820;-60
2021/10/07 02:27:04;;;;;;;8.40;4.10;;;;;;;9.78;36.08;101909.84;117210;1185;21854;-60
2021/10/07 02:29:34;;;;;;;12.60;4.60;;;;;;;9.77;36.02;101908.23;117185;1185;22930;-60
2021/10/07 02:32:02;;;;;;;11.50;4.10;;;;;;;9.77;36.12;101910.50;117395;1185;21867;-60
2021/10/07 02:34:31;;;;;;;10.80;4.20;;;;;;;9.73;36.16;101906.77;117307;1182;21858;-60
2021/10/07 02:36:59;;;;;;;13.60;5.10;;;;;;;9.72;36.03;101908.14;117230;1186;21861;-60
2021/10/07 02:39:27;;;;;;;12.30;5.00;;;;;;;9.70;36.22;101909.89;117321;1185;23807;-60
2021/10/07 02:41:58;;;;;;;13.20;4.80;;;;;;;9.69;36.09;101912.49;117278;1186;23544;-61
2021/10/07 02:44:26;;;;;;;11.50;5.10;;;;;;;9.67;36.26;101912.83;117279;1186;21858;-60
2021/10/07 02:46:55;;;;;;;12.90;4.50;;;;;;;9.65;36.22;101914.19;117324;1186;23579;-60
2021/10/07 02:49:23;;;;;;;13.10;4.70;;;;;;;9.63;36.18;101915.20;117337;1185;23547;-60
2021/10/07 02:51:51;;;;;;;17.50;4.70;;;;;;;9.59;36.26;101921.11;117261;1185;23442;-62
2021/10/07 02:54:20;;;;;;;13.30;4.60;;;;;;;9.55;36.08;101924.54;117350;1186;23570;-61
2021/10/07 02:56:53;;;;;;;11.30;4.50;;;;;;;9.52;36.21;101930.79;117304;1186;23544;-62
2021/10/07 02:59:21;;;;;;;9.60;3.90;;;;;;;9.49;36.26;101928.81;117217;1186;21869;-61
2021/10/07 03:01:49;;;;;;;8.70;4.40;;;;;;;9.47;36.27;101929.14;117272;1186;23575;-61
2021/10/07 03:04:17;;;;;;;13.90;4.90;;;;;;;9.44;36.35;101926.30;117219;1185;23598;-60
2021/10/07 03:06:45;;;;;;;12.10;5.10;;;;;;;9.41;36.32;101928.85;117191;1185;21897;-62
2021/10/07 03:09:14;;;;;;;10.00;4.10;;;;;;;9.34;36.39;101926.44;117349;1185;22655;-61
2021/10/07 03:11:43;;;;;;;9.50;4.20;;;;;;;9.31;36.45;101927.61;117378;1185;23528;-50
2021/10/07 03:14:11;;;;;;;7.20;4.30;;;;;;;9.29;36.34;101924.95;117365;1186;23563;-61
2021/10/07 03:16:40;;;;;;;11.10;4.60;;;;;;;9.28;36.46;101927.75;117307;1185;23538;-62
2021/10/07 03:19:09;;;;;;;13.00;4.90;;;;;;;9.25;36.49;101928.23;117289;1183;22818;-61
2021/10/07 03:21:38;;;;;;;22.90;5.80;;;;;;;9.24;36.57;101929.42;117388;1185;21848;-60
2021/10/07 03:24:06;;;;;;;10.60;4.70;;;;;;;9.21;36.50;101929.38;117375;1185;21973;-59
2021/10/07 03:26:35;;;;;;;9.30;4.60;;;;;;;9.19;36.57;101933.20;117314;1182;21887;-50
2021/10/07 03:29:03;;;;;;;11.70;4.60;;;;;;;9.18;36.56;101936.50;117347;1186;24129;-49
2021/10/07 03:31:32;;;;;;;22.80;5.40;;;;;;;9.17;36.66;101938.59;117354;1185;23536;-60
2021/10/07 03:34:00;;;;;;;10.20;4.40;;;;;;;9.19;36.64;101945.11;117382;1185;21873;-60
2021/10/07 03:36:28;;;;;;;14.80;5.10;;;;;;;9.19;36.59;101943.87;117350;1185;23554;-60
2021/10/07 03:38:56;;;;;;;12.90;4.40;;;;;;;9.18;36.60;101942.99;117286;1183;21857;-60
2021/10/07 03:41:24;;;;;;;13.30;4.60;;;;;;;9.15;36.74;101944.85;117314;1186;21857;-60
2021/10/07 03:43:52;;;;;;;10.70;4.00;;;;;;;9.12;36.75;101947.60;117349;1184;23595;-60
2021/10/07 03:46:21;;;;;;;23.00;4.60;;;;;;;9.10;36.71;101950.70;117426;1186;21872;-60
2021/10/07 03:48:50;;;;;;;6.60;4.00;;;;;;;9.08;36.69;101950.16;117416;1185;23567;-61
2021/10/07 03:51:18;;;;;;;11.00;4.40;;;;;;;9.07;36.75;101954.52;117349;1182;23556;-60
2021/10/07 03:53:46;;;;;;;11.30;4.80;;;;;;;9.06;36.77;101951.86;117366;1183;23544;-62
2021/10/07 03:56:14;;;;;;;10.60;4.10;;;;;;;9.06;36.86;101952.58;117305;1182;21863;-48
2021/10/07 03:58:42;;;;;;;13.70;4.20;;;;;;;9.10;36.88;101952.80;117248;1186;21848;-60
2021/10/07 04:01:10;;;;;;;17.30;5.20;;;;;;;9.15;36.82;101952.90;117301;1185;23582;-61
2021/10/07 04:03:39;;;;;;;15.10;4.00;;;;;;;9.21;37.05;101954.61;117354;1185;21844;-61
2021/10/07 04:06:07;;;;;;;22.20;4.30;;;;;;;9.24;36.99;101956.06;117289;1186;22616;-60
2021/10/07 04:08:36;;;;;;;13.40;4.20;;;;;;;9.25;36.99;101961.33;117278;1186;23558;-58
2021/10/07 04:11:04;;;;;;;9.00;4.00;;;;;;;9.21;36.90;101960.21;117352;1184;23538;-61
2021/10/07 04:13:33;;;;;;;24.30;4.70;;;;;;;9.17;36.95;101963.63;117360;1185;21855;-64
2021/10/07 04:16:01;;;;;;;11.30;4.20;;;;;;;9.16;37.02;101968.17;117322;1186;23473;-63
2021/10/07 04:18:30;;;;;;;9.90;4.10;;;;;;;9.14;37.00;101965.50;117250;1183;22976;-62
2021/10/07 04:20:58;;;;;;;10.30;4.80;;;;;;;9.14;37.05;101969.52;117297;1182;21918;-62
2021/10/07 04:23:26;;;;;;;11.40;4.10;;;;;;;9.15;37.10;101971.48;117268;1182;23546;-62
2021/10/07 04:25:55;;;;;;;9.20;4.00;;;;;;;9.15;37.11;101968.31;117272;1182;23646;-62
2021/10/07 04:28:24;;;;;;;9.40;3.60;;;;;;;9.14;37.01;101967.42;117364;1186;23544;-62
2021/10/07 04:30:52;;;;;;;10.80;4.00;;;;;;;9.15;37.14;101968.14;117344;1189;21857;-61
2021/10/07 04:33:21;;;;;;;12.90;3.60;;;;;;;9.18;37.19;101965.58;117317;1186;23547;-60
2021/10/07 04:35:49;;;;;;;8.80;3.40;;;;;;;9.21;37.22;101964.60;117308;1182;23444;-59
2021/10/07 04:38:17;;;;;;;8.30;3.70;;;;;;;9.23;37.21;101967.07;117336;1183;23545;-60
2021/10/07 04:40:46;;;;;;;52.30;6.60;;;;;;;9.25;37.30;101967.29;117333;1182;23569;-61
2021/10/07 04:43:18;;;;;;;20.20;4.00;;;;;;;9.25;37.32;101962.02;117301;1182;21860;-60
2021/10/07 04:45:47;;;;;;;8.70;3.40;;;;;;;9.27;37.36;101962.59;117322;1185;21864;-60
2021/10/07 04:48:15;;;;;;;10.50;3.40;;;;;;;9.28;37.22;101962.95;117330;1183;23580;-60
2021/10/07 04:50:43;;;;;;;12.20;3.30;;;;;;;9.28;37.39;101960.86;117279;1186;21848;-59
2021/10/07 04:53:11;;;;;;;13.20;3.90;;;;;;;9.29;37.38;101967.00;117271;1185;23557;-60
2021/10/07 04:55:40;;;;;;;9.50;3.10;;;;;;;9.31;37.45;101963.52;117318;1185;23545;-60
2021/10/07 04:58:08;;;;;;;13.20;3.90;;;;;;;9.36;37.45;101964.15;117330;1182;22650;-60
2021/10/07 05:00:36;;;;;;;10.10;3.30;;;;;;;9.40;37.48;101963.70;117464;1185;23566;-59
2021/10/07 05:03:05;;;;;;;10.30;3.60;;;;;;;9.44;37.48;101965.88;117217;1185;22875;-60
2021/10/07 05:05:34;;;;;;;15.20;4.30;;;;;;;9.48;37.55;101965.77;117215;1186;23556;-61
2021/10/07 05:08:02;;;;;;;11.70;3.20;;;;;;;9.53;37.60;101966.02;117339;1185;23544;-60
2021/10/07 05:10:30;;;;;;;10.70;3.70;;;;;;;9.59;37.61;101967.88;117215;1190;21856;-60
2021/10/07 05:12:58;;;;;;;8.40;2.80;;;;;;;9.64;37.60;101966.04;117289;1184;22931;-60
2021/10/07 05:15:27;;;;;;;13.90;3.40;;;;;;;9.71;37.59;101964.23;117525;1185;22611;-60
2021/10/07 05:17:55;;;;;;;9.60;3.00;;;;;;;9.79;37.63;101968.73;117182;1183;23541;-60
2021/10/07 05:20:24;;;;;;;9.40;3.10;;;;;;;9.85;37.66;101972.35;117187;1181;22912;-60
2021/10/07 05:22:52;;;;;;;6.50;2.80;;;;;;;9.90;37.67;101973.83;117246;1182;22960;-60
2021/10/07 05:25:20;;;;;;;14.10;3.90;;;;;;;9.96;37.61;101974.10;117323;1185;23461;-61
2021/10/07 05:27:48;;;;;;;11.20;3.40;;;;;;;10.04;37.64;101975.27;117296;1188;21858;-60
2021/10/07 05:30:16;;;;;;;16.10;3.90;;;;;;;10.15;37.70;101977.38;117314;1182;23545;-60
2021/10/07 05:32:45;;;;;;;7.60;3.50;;;;;;;10.24;37.74;101978.21;117359;1186;23544;-61
2021/10/07 05:35:13;;;;;;;8.40;3.20;;;;;;;10.37;37.81;101979.46;117379;1182;23467;-61
2021/10/07 05:37:41;;;;;;;10.30;3.00;;;;;;;10.47;37.91;101980.14;117327;1185;21857;-60
2021/10/07 05:40:10;;;;;;;9.70;2.90;;;;;;;10.56;37.72;101980.45;117355;1185;23442;-60
2021/10/07 05:42:39;;;;;;;9.80;2.90;;;;;;;10.65;37.89;101978.80;117359;1182;22302;-59
2021/10/07 05:45:10;;;;;;;8.30;2.90;;;;;;;10.75;37.84;101978.58;117359;1182;21857;-61
2021/10/07 05:47:40;;;;;;;8.70;3.10;;;;;;;10.86;37.86;101982.94;117305;1185;21848;-61
2021/10/07 05:50:10;;;;;;;13.40;3.30;;;;;;;10.96;37.89;101980.95;117376;1182;21860;-60
2021/10/07 05:52:38;;;;;;;7.60;3.70;;;;;;;11.07;37.78;101979.66;117358;1185;22925;-60
2021/10/07 05:55:07;;;;;;;8.80;3.20;;;;;;;11.19;37.87;101983.84;117331;1183;22371;-60
2021/10/07 05:57:36;;;;;;;9.50;3.10;;;;;;;11.30;37.93;101982.71;117318;1185;21859;-61
2021/10/07 06:00:06;;;;;;;17.40;3.10;;;;;;;11.43;37.92;101983.73;117314;1185;23541;-60
2021/10/07 06:02:35;;;;;;;9.70;3.70;;;;;;;11.55;38.16;101980.85;117182;1183;22906;-60
2021/10/07 06:05:04;;;;;;;13.60;3.40;;;;;;;11.67;38.07;101980.95;117348;1184;23539;-61
2021/10/07 06:07:32;;;;;;;11.00;3.00;;;;;;;11.79;38.02;101981.23;117378;1180;21859;-52
2021/10/07 06:10:01;;;;;;;14.70;3.70;;;;;;;11.90;38.09;101978.86;117342;1185;24740;-50
2021/10/07 06:12:29;;;;;;;14.30;3.70;;;;;;;12.02;38.17;101981.27;117377;1182;22960;-50
2021/10/07 06:14:57;;;;;;;13.50;3.60;;;;;;;12.14;38.05;101978.02;117286;1185;21867;-61
2021/10/07 06:17:26;;;;;;;8.00;3.30;;;;;;;12.26;38.08;101976.51;117309;1186;24175;-51
2021/10/07 06:20:01;;;;;;;7.40;3.20;;;;;;;12.42;38.08;101977.66;117315;1185;23524;-50
2021/10/07 06:22:29;;;;;;;10.20;3.60;;;;;;;12.55;37.97;101970.86;117343;1183;23650;-50
2021/10/07 06:24:57;;;;;;;17.20;3.30;;;;;;;12.67;38.11;101970.56;117339;1186;23579;-50
2021/10/07 06:27:26;;;;;;;11.90;4.40;;;;;;;12.79;37.96;101968.50;117294;1185;22810;-51
2021/10/07 06:29:54;;;;;;;7.20;3.30;;;;;;;12.95;38.29;101966.79;117386;1183;23439;-51
2021/10/07 06:32:22;;;;;;;11.40;3.30;;;;;;;13.10;38.07;101962.42;117321;1185;23569;-51
2021/10/07 06:34:50;;;;;;;9.30;3.70;;;;;;;13.23;38.11;101961.23;117306;1182;23612;-52
2021/10/07 06:37:20;;;;;;;9.90;3.30;;;;;;;13.33;38.11;101953.84;117309;1185;22634;-52
2021/10/07 06:39:49;;;;;;;10.50;3.30;;;;;;;13.44;38.15;101954.94;117362;1186;23545;-52
2021/10/07 06:42:17;;;;;;;15.60;3.60;;;;;;;13.55;38.06;101952.83;117257;1182;23547;-51
2021/10/07 06:44:45;;;;;;;9.50;2.90;;;;;;;13.64;38.08;101954.25;117285;1186;23437;-51
2021/10/07 06:47:13;;;;;;;9.90;3.60;;;;;;;13.73;37.92;101954.77;117273;1181;21866;-51
2021/10/07 06:49:43;;;;;;;22.00;3.90;;;;;;;13.83;38.03;101951.77;117255;1186;23640;-51
2021/10/07 06:52:11;;;;;;;10.50;3.50;;;;;;;13.95;37.94;101945.59;117327;1184;23448;-52
2021/10/07 06:54:39;;;;;;;9.20;3.40;;;;;;;14.07;37.93;101943.10;117319;1185;23554;-52
2021/10/07 06:57:08;;;;;;;11.70;3.60;;;;;;;14.18;38.02;101939.71;117453;1183;23621;-53
2021/10/07 06:59:36;;;;;;;11.50;3.60;;;;;;;14.31;38.06;101936.33;117374;1186;23465;-52
2021/10/07 07:02:04;;;;;;;9.00;3.40;;;;;;;14.44;38.04;101935.23;117246;1186;21851;-53
2021/10/07 07:04:33;;;;;;;13.40;3.80;;;;;;;14.55;37.95;101935.36;117367;1183;21873;-53
2021/10/07 07:07:01;;;;;;;11.60;3.60;;;;;;;14.66;37.89;101937.98;117309;1184;21864;-52
2021/10/07 07:09:30;;;;;;;12.70;3.40;;;;;;;14.77;37.84;101938.83;117346;1182;23551;-52
2021/10/07 07:12:18;;;;;;;11.20;3.60;;;;;;;14.94;37.85;101942.80;117374;1185;21898;-53
2021/10/07 07:14:46;;;;;;;12.90;3.60;;;;;;;15.11;37.86;101947.48;117288;1182;21853;-53
2021/10/07 07:17:15;;;;;;;11.80;3.70;;;;;;;15.23;37.80;101949.35;117291;1185;21898;-51
2021/10/07 07:19:44;;;;;;;12.20;3.60;;;;;;;15.40;37.74;101950.11;117298;1185;21860;-50
2021/10/07 07:22:15;;;;;;;11.10;3.40;;;;;;;15.56;37.75;101953.71;117368;1182;23566;-51
2021/10/07 07:24:43;;;;;;;19.10;3.50;;;;;;;15.69;37.71;101960.86;117333;1183;23588;-51
2021/10/07 07:27:14;;;;;;;8.50;3.30;;;;;;;15.84;37.74;101968.02;117318;1182;24156;-52
2021/10/07 07:29:42;;;;;;;10.80;3.10;;;;;;;15.99;37.63;101965.59;117374;1186;23560;-52
2021/10/07 07:32:11;;;;;;;11.60;3.50;;;;;;;16.13;37.71;101969.52;117320;1182;23564;-54
2021/10/07 07:34:40;;;;;;;11.10;3.10;;;;;;;16.26;37.68;101962.12;117397;1185;21864;-51
2021/10/07 07:37:08;;;;;;;6.00;2.60;;;;;;;16.33;37.65;101960.45;117380;1185;21869;-50
2021/10/07 07:39:36;;;;;;;6.80;2.70;;;;;;;16.45;37.65;101953.23;117290;1186;23544;-52
2021/10/07 07:42:05;;;;;;;11.00;4.30;;;;;;;16.58;37.63;101951.67;117370;1182;22648;-52
2021/10/07 07:44:35;;;;;;;12.70;3.60;;;;;;;16.70;37.66;101947.62;117352;1185;23547;-53
2021/10/07 07:47:03;;;;;;;12.40;3.80;;;;;;;16.79;37.56;101948.02;117470;1183;21867;-52
2021/10/07 07:49:32;;;;;;;14.10;4.60;;;;;;;16.89;37.50;101948.08;117329;1185;23544;-51
2021/10/07 07:52:00;;;;;;;11.40;3.40;;;;;;;17.00;37.56;101945.81;117311;1185;23544;-51
2021/10/07 07:54:29;;;;;;;11.00;3.40;;;;;;;17.17;37.47;101946.66;117336;1185;23576;-52
2021/10/07 07:56:57;;;;;;;13.70;3.30;;;;;;;17.31;37.47;101946.45;117401;1182;23569;-49
2021/10/07 07:59:25;;;;;;;10.70;3.40;;;;;;;17.42;37.43;101946.96;117360;1183;23590;-51
2021/10/07 08:01:54;;;;;;;10.20;2.90;;;;;;;17.54;37.48;101941.27;117274;1185;21913;-50
2021/10/07 08:04:23;;;;;;;13.30;3.20;;;;;;;17.67;37.40;101934.86;117337;1183;22094;-53
2021/10/07 08:06:51;;;;;;;11.00;4.00;;;;;;;17.78;37.36;101930.22;117268;1182;21860;-52
2021/10/07 08:09:19;;;;;;;13.00;3.20;;;;;;;17.90;37.21;101929.83;117299;1184;23567;-52
2021/10/07 08:11:47;;;;;;;16.30;3.80;;;;;;;18.05;37.24;101930.11;117282;1185;22622;-53
2021/10/07 08:14:33;;;;;;;12.60;3.90;;;;;;;18.16;37.16;101925.64;117250;1182;23569;-53
2021/10/07 08:17:01;;;;;;;10.90;3.10;;;;;;;18.25;37.22;101917.67;117356;1185;23639;-53
2021/10/07 08:19:30;;;;;;;9.70;3.40;;;;;;;18.35;37.12;101915.32;117335;1183;21859;-53
2021/10/07 08:21:58;;;;;;;10.80;3.90;;;;;;;18.46;37.08;101924.52;117292;1185;24016;-50
2021/10/07 08:24:26;;;;;;;12.90;4.10;;;;;;;18.55;37.10;101927.70;117337;1182;23461;-54
2021/10/07 08:26:54;;;;;;;12.50;3.80;;;;;;;18.69;37.14;101928.13;117297;1185;23442;-51
2021/10/07 08:29:22;;;;;;;14.30;4.10;;;;;;;18.80;37.12;101923.79;117298;1182;22834;-53
2021/10/07 08:31:51;;;;;;;15.00;3.40;;;;;;;18.90;37.02;101922.50;117278;1181;21857;-53
2021/10/07 08:34:19;;;;;;;12.20;3.90;;;;;;;19.01;36.99;101927.64;117296;1183;22991;-53
2021/10/07 08:36:47;;;;;;;11.60;3.40;;;;;;;19.14;36.92;101927.15;117309;1186;21857;-53
2021/10/07 08:39:16;;;;;;;10.70;3.50;;;;;;;19.25;36.88;101932.76;117329;1185;23887;-52
2021/10/07 08:41:49;;;;;;;11.20;3.80;;;;;;;19.37;36.83;101929.48;117372;1185;21858;-53
2021/10/07 08:44:18;;;;;;;12.70;3.80;;;;;;;19.49;36.79;101931.65;117358;1183;22991;-53
2021/10/07 08:46:47;;;;;;;13.40;3.30;;;;;;;19.61;36.78;101929.22;117307;1185;22657;-53
2021/10/07 08:49:17;;;;;;;12.30;3.70;;;;;;;19.70;36.83;101922.55;117313;1185;23544;-53
2021/10/07 08:51:45;;;;;;;13.10;3.80;;;;;;;19.79;36.82;101920.57;117315;1184;22613;-53
2021/10/07 08:54:14;;;;;;;13.40;3.50;;;;;;;19.90;36.73;101924.55;117347;1182;22921;-52
2021/10/07 08:56:43;;;;;;;11.30;3.60;;;;;;;20.00;36.70;101922.52;117328;1180;22898;-53
2021/10/07 08:59:11;;;;;;;20.10;3.70;;;;;;;20.11;36.67;101924.38;117365;1185;23566;-54
2021/10/07 09:01:47;;;;;;;13.10;4.20;;;;;;;20.21;36.58;101924.63;117294;1185;23553;-53
2021/10/07 09:04:35;;;;;;;15.10;3.80;;;;;;;20.32;36.53;101923.94;117493;1185;21854;-52
2021/10/07 09:07:08;;;;;;;11.40;3.90;;;;;;;20.39;36.49;101923.23;117313;1182;23538;-54
2021/10/07 09:09:40;;;;;;;12.40;4.30;;;;;;;20.43;36.38;101920.26;117334;1185;21858;-52
2021/10/07 09:12:10;;;;;;;12.50;3.60;;;;;;;20.47;36.39;101913.55;117365;1181;23003;-53
2021/10/07 09:14:44;;;;;;;9.80;3.30;;;;;;;20.51;36.38;101907.91;117349;1184;22906;-53
2021/10/07 09:17:14;;;;;;;9.70;3.70;;;;;;;20.62;36.48;101906.33;117314;1182;21908;-54
2021/10/07 09:19:46;;;;;;;11.90;3.80;;;;;;;20.75;36.43;101908.08;117332;1186;23464;-53
2021/10/07 09:22:26;;;;;;;16.60;4.50;;;;;;;20.86;36.36;101905.81;117412;1184;23509;-54
2021/10/07 09:24:59;;;;;;;13.50;4.30;;;;;;;20.95;36.35;101904.81;117318;1185;23645;-53
2021/10/07 09:27:29;;;;;;;13.00;4.50;;;;;;;21.04;36.24;101911.31;117334;1184;23686;-54
2021/10/07 09:30:07;;;;;;;14.50;3.60;;;;;;;21.11;36.16;101912.87;117334;1182;22647;-54
2021/10/07 09:32:47;;;;;;;14.90;3.90;;;;;;;21.21;36.14;101918.25;117354;1183;23557;-54
2021/10/07 09:35:18;;;;;;;16.50;4.40;;;;;;;21.30;36.14;101917.95;117380;1183;21899;-53
2021/10/07 09:37:51;;;;;;;13.90;3.60;;;;;;;21.38;36.08;101916.45;117352;1183;22925;-54
2021/10/07 09:40:23;;;;;;;13.80;3.50;;;;;;;21.46;36.18;101915.30;117431;1185;21861;-54
2021/10/07 09:42:57;;;;;;;10.70;3.50;;;;;;;21.55;36.14;101913.05;117331;1185;23544;-53
2021/10/07 09:45:32;;;;;;;11.20;3.90;;;;;;;21.63;35.97;101910.66;117305;1185;21857;-53
2021/10/07 09:48:07;;;;;;;11.50;3.10;;;;;;;21.70;35.93;101912.73;117275;1184;22620;-54
2021/10/07 09:50:40;;;;;;;11.80;3.40;;;;;;;21.75;35.92;101915.42;117207;1186;21855;-53
2021/10/07 09:53:13;;;;;;;16.20;3.40;;;;;;;21.78;35.79;101918.55;117412;1182;23439;-53
2021/10/07 09:55:43;;;;;;;11.50;4.50;;;;;;;21.77;35.83;101917.48;117331;1183;23542;-54
2021/10/07 09:58:12;;;;;;;10.80;3.70;;;;;;;21.82;35.79;101920.52;117356;1182;22808;-53
2021/10/07 10:00:45;;;;;;;12.90;3.40;;;;;;;21.89;35.61;101915.65;117364;1185;21867;-54
2021/10/07 10:03:15;;;;;;;11.50;3.10;;;;;;;21.93;35.57;101914.58;117366;1182;21857;-54
2021/10/07 10:05:45;;;;;;;10.20;2.90;;;;;;;22.01;35.70;101914.67;117349;1182;23544;-53
2021/10/07 10:08:15;;;;;;;11.80;3.50;;;;;;;22.06;35.52;101915.40;117367;1188;21866;-53
2021/10/07 10:10:45;;;;;;;12.20;3.00;;;;;;;22.10;35.46;101913.83;117368;1182;22622;-54
2021/10/07 10:13:15;;;;;;;10.10;3.00;;;;;;;22.16;35.39;101912.88;117344;1186;21864;-54
2021/10/07 10:15:44;;;;;;;13.10;2.90;;;;;;;22.21;35.36;101905.73;117300;1182;23460;-53
2021/10/07 10:18:14;;;;;;;8.10;3.00;;;;;;;22.27;35.29;101900.33;117359;1182;22918;-54
2021/10/07 10:20:51;;;;;;;11.80;3.00;;;;;;;22.32;35.22;101894.76;117369;1185;21858;-54
2021/10/07 10:23:21;;;;;;;13.70;3.40;;;;;;;22.35;35.17;101896.47;117322;1185;23569;-51
2021/10/07 10:25:57;;;;;;;11.10;3.50;;;;;;;22.36;35.09;101889.98;117381;1182;22940;-50
2021/10/07 10:28:41;;;;;;;12.80;3.00;;;;;;;22.32;35.01;101886.02;117318;1185;22546;-51
2021/10/07 10:31:11;;;;;;;13.80;2.60;;;;;;;22.30;35.13;101881.98;117348;1182;22622;-62
2021/10/07 10:33:45;;;;;;;7.90;2.80;;;;;;;22.33;35.08;101881.16;117283;1183;22863;-60
2021/10/07 10:36:28;;;;;;;11.30;2.90;;;;;;;22.33;35.04;101875.42;117091;1186;21861;-60
2021/10/07 10:39:00;;;;;;;14.50;2.80;;;;;;;22.33;34.87;101875.07;117368;1185;21858;-63
2021/10/07 10:41:50;;;;;;;7.60;2.80;;;;;;;22.35;34.85;101871.59;117393;1183;21890;-62
2021/10/07 10:44:27;;;;;;;11.60;3.20;;;;;;;22.36;34.72;101866.00;117252;1189;21862;-60
2021/10/07 10:47:08;;;;;;;12.10;3.20;;;;;;;22.38;34.71;101865.41;117355;1184;21856;-61
2021/10/07 10:49:46;;;;;;;10.30;3.20;;;;;;;22.41;34.59;101863.52;117302;1182;23567;-60
2021/10/07 10:52:26;;;;;;;10.90;2.70;;;;;;;22.42;34.64;101865.25;118338;1185;23659;-63
2021/10/07 10:55:01;;;;;;;11.30;2.50;;;;;;;22.42;34.49;101863.63;117266;1185;21883;-60
2021/10/07 10:57:39;;;;;;;8.50;2.60;;;;;;;22.44;34.50;101862.34;117198;1183;21859;-60
2021/10/07 11:00:28;;;;;;;10.80;3.10;;;;;;;22.47;34.44;101864.05;117318;1185;22938;-62
2021/10/07 11:03:09;;;;;;;9.10;2.60;;;;;;;22.44;34.31;101859.12;117369;1185;21853;-59
2021/10/07 11:05:58;;;;;;;9.70;3.60;;;;;;;22.38;34.24;101858.60;117370;1182;21918;-61
2021/10/07 11:08:41;;;;;;;9.30;2.70;;;;;;;22.33;34.27;101847.70;117306;1185;23569;-61
2021/10/07 11:11:22;;;;;;;15.30;3.60;;;;;;;22.30;34.26;101845.88;117333;1185;22918;-61
2021/10/07 11:13:50;;;;;;;12.00;2.90;;;;;;;22.30;34.27;101844.61;117345;1185;24171;-62
2021/10/07 11:16:19;;;;;;;9.40;3.20;;;;;;;22.33;34.36;101845.94;117411;1185;23560;-61
2021/10/07 11:18:48;;;;;;;11.40;3.10;;;;;;;22.35;34.18;101847.64;117328;1184;22713;-60
2021/10/07 11:21:19;;;;;;;13.90;3.50;;;;;;;22.36;34.11;101849.37;117339;1185;21902;-61
2021/10/07 11:23:52;;;;;;;7.60;3.00;;;;;;;22.36;34.07;101848.84;117337;1185;22002;-61
2021/10/07 11:26:23;;;;;;;12.20;3.60;;;;;;;22.32;34.00;101849.16;117297;1183;23570;-61
2021/10/07 11:28:54;;;;;;;11.70;3.50;;;;;;;22.33;33.83;101849.14;117272;1183;22918;-58
2021/10/07 11:31:25;;;;;;;10.50;3.40;;;;;;;22.33;33.89;101847.91;117361;1183;21903;-61
2021/10/07 11:33:57;;;;;;;14.40;3.80;;;;;;;22.31;33.93;101842.60;117214;1182;23531;-62